Alfred, Maine
Current Conditions -  °F | °C
As of 11:35 PM on Friday 21 Nov 2014 (Local Time) from KSFM Reporting Station
Clear Clear  
Wind Chill: -10°   Ceiling: Unl
Heat Index: -5°   Visibility: 10mi
Dew Point: -17°   Wind: 7mph
Humidity: 39%   Direction: 280°W
Pressure: 30.35"   Gusts: NA
Location:  43.48°N, 70.72°W
Report Text: KSFM 220435Z AUTO 28006KT 10SM CLR M05/M17 A3035 RMK AO1
Loading
Personal Weather Stations






























Interactive Weather Map New forecast layout! Learn more

10-Day Weather Forecast

Advertisements
Track Severe Weather on mobile